Time;durP1;ratioP1;P1;durP2;ratioP2;P2;SDS_P1;SDS_P2;PMS_P1;PMS_P2;Temp;Humidity;BMP_temperature;BMP_pressure;BME280_temperature;BME280_humidity;BME280_pressure;Samples;Min_cycle;Max_cycle;Signal;HPM_P1;HPM_P2
2022/09/30 00:01:04;;;;;;;3.83;3.53;;;;;;;11.19;100.00;98302.19;6182716;22;20204;-91
2022/09/30 00:03:31;;;;;;;4.10;3.80;;;;;;;11.17;100.00;98298.94;6222628;22;20208;-92
2022/09/30 00:06:04;;;;;;;3.70;3.40;;;;;;;11.20;100.00;98309.13;6222484;22;20207;-92
2022/09/30 00:08:36;;;;;;;4.23;3.83;;;;;;;11.18;100.00;98303.22;6199017;22;20200;-92
2022/09/30 00:11:03;;;;;;;4.30;3.57;;;;;;;11.18;100.00;98308.59;6222505;22;20214;-91
2022/09/30 00:13:34;;;;;;;3.47;3.17;;;;;;;11.19;100.00;98301.38;6222566;22;20204;-92
2022/09/30 00:16:02;;;;;;;4.00;3.63;;;;;;;11.16;100.00;98304.53;6222304;22;20280;-92
2022/09/30 00:18:30;;;;;;;4.03;3.63;;;;;;;11.19;100.00;98315.59;6196579;22;20235;-93
2022/09/30 00:20:56;;;;;;;4.00;3.70;;;;;;;11.28;100.00;98310.56;6223136;22;20212;-92
2022/09/30 00:23:24;;;;;;;3.33;3.03;;;;;;;11.31;100.00;98318.06;6197906;22;20204;-91
2022/09/30 00:25:52;;;;;;;3.40;3.10;;;;;;;11.29;100.00;98312.97;6198054;22;20200;-92
2022/09/30 00:28:18;;;;;;;3.60;3.30;;;;;;;11.22;100.00;98312.38;6247177;22;20672;-92
2022/09/30 00:30:47;;;;;;;4.07;3.67;;;;;;;11.22;100.00;98312.38;6223192;22;20204;-92
2022/09/30 00:33:13;;;;;;;4.80;3.07;;;;;;;11.15;100.00;98301.03;6247358;22;20211;-90
2022/09/30 00:35:40;;;;;;;3.40;3.10;;;;;;;11.21;100.00;98308.06;6272746;22;20204;-91
2022/09/30 00:38:07;;;;;;;3.70;3.40;;;;;;;11.26;100.00;98313.47;6246591;22;20208;-91
2022/09/30 00:40:33;;;;;;;3.83;3.20;;;;;;;11.22;100.00;98311.56;6273113;22;20211;-91
2022/09/30 00:43:00;;;;;;;3.67;3.37;;;;;;;11.22;100.00;98325.78;6247540;22;20208;-92
2022/09/30 00:45:27;;;;;;;4.50;3.50;;;;;;;11.22;100.00;98314.25;6247343;22;20208;-91
2022/09/30 00:48:14;;;;;;;3.40;3.13;;;;;;;11.24;100.00;98320.19;6222597;22;20211;-92
2022/09/30 00:50:44;;;;;;;3.33;3.03;;;;;;;11.24;100.00;98315.63;6197693;22;20652;-92
2022/09/30 00:53:20;;;;;;;3.43;3.13;;;;;;;11.26;100.00;98320.72;6198265;22;20211;-92
2022/09/30 00:55:50;;;;;;;3.40;3.10;;;;;;;11.30;100.00;98319.94;6195893;22;20212;-92
2022/09/30 00:58:22;;;;;;;3.83;3.37;;;;;;;11.28;100.00;98318.59;6221598;22;20210;-92
2022/09/30 01:00:50;;;;;;;3.33;3.03;;;;;;;11.25;100.00;98316.41;6197519;22;20208;-92
2022/09/30 01:03:18;;;;;;;4.23;3.43;;;;;;;11.27;100.00;98306.25;6222706;22;20282;-93
2022/09/30 01:05:45;;;;;;;3.50;3.20;;;;;;;11.26;100.00;98312.66;6196860;22;20235;-92
2022/09/30 01:08:12;;;;;;;3.73;3.30;;;;;;;11.30;100.00;98321.81;6221231;22;20212;-91
2022/09/30 01:10:38;;;;;;;3.90;3.50;;;;;;;11.27;100.00;98312.44;6222329;22;20204;-92
2022/09/30 01:13:05;;;;;;;4.07;3.60;;;;;;;11.25;100.00;98314.53;6222483;22;20242;-91
2022/09/30 01:15:43;;;;;;;5.93;3.53;;;;;;;11.27;100.00;98312.44;6247116;22;20214;-92
2022/09/30 01:18:36;;;;;;;3.90;3.60;;;;;;;11.30;100.00;98322.63;6222262;22;20540;-92
2022/09/30 01:21:42;;;;;;;3.90;3.60;;;;;;;11.30;100.00;98316.44;6240872;22;20287;-91
2022/09/30 01:24:17;;;;;;;3.70;3.40;;;;;;;11.31;100.00;98313.53;6192453;22;20663;-92
2022/09/30 01:27:10;;;;;;;3.70;3.40;;;;;;;11.29;100.00;98321.00;6244187;22;20706;-92
2022/09/30 01:29:52;;;;;;;3.60;3.30;;;;;;;11.32;100.00;98317.84;6194333;23;20279;-92
2022/09/30 01:32:56;;;;;;;3.57;3.30;;;;;;;11.32;100.00;98315.16;6193708;23;20204;-93
2022/09/30 01:35:47;;;;;;;3.57;3.27;;;;;;;11.35;100.00;98328.03;6194545;23;20211;-92
2022/09/30 01:38:29;;;;;;;3.60;3.30;;;;;;;11.29;100.00;98320.22;6168113;23;20208;-92
2022/09/30 01:41:00;;;;;;;4.37;3.77;;;;;;;11.28;100.00;98321.28;6219615;22;20215;-92
2022/09/30 01:43:44;;;;;;;3.93;3.63;;;;;;;11.31;100.00;98321.56;6217897;23;20204;-92
2022/09/30 01:46:42;;;;;;;4.00;3.50;;;;;;;11.30;100.00;98317.25;6194854;23;20462;-92
2022/09/30 01:49:14;;;;;;;4.00;3.70;;;;;;;11.30;100.00;98325.31;6193340;22;20205;-90
2022/09/30 01:52:06;;;;;;;4.43;4.03;;;;;;;11.35;100.00;98320.00;6218675;23;20202;-92
2022/09/30 01:54:41;;;;;;;3.87;3.53;;;;;;;11.37;100.00;98320.56;6192913;23;20573;-91
2022/09/30 01:57:17;;;;;;;4.67;3.70;;;;;;;11.33;100.00;98324.81;6193188;23;20205;-90
2022/09/30 01:59:48;;;;;;;4.00;3.70;;;;;;;11.27;100.00;98325.81;6193203;23;20209;-90
2022/09/30 02:02:18;;;;;;;5.73;4.60;;;;;;;11.33;100.00;98324.00;6168193;22;20209;-93
2022/09/30 02:04:52;;;;;;;4.57;4.17;;;;;;;11.31;100.00;98328.81;6218322;23;20205;-90
2022/09/30 02:07:33;;;;;;;4.20;3.90;;;;;;;11.30;100.00;98324.50;6168068;23;20212;-89
2022/09/30 02:10:08;;;;;;;4.70;4.30;;;;;;;11.32;100.00;98325.06;6192784;23;20212;-90
2022/09/30 02:12:41;;;;;;;4.20;3.80;;;;;;;11.37;100.00;98322.44;6167964;23;20485;-90
2022/09/30 02:15:11;;;;;;;7.40;4.70;;;;;;;11.40;100.00;98321.91;6218198;22;20236;-90
2022/09/30 02:17:45;;;;;;;4.97;4.47;;;;;;;11.39;100.00;98325.66;6218534;23;20205;-90
2022/09/30 02:20:40;;;;;;;5.97;4.20;;;;;;;11.37;100.00;98325.09;6217916;23;20261;-90
2022/09/30 02:23:27;;;;;;;5.20;4.73;;;;;;;11.36;100.00;98331.53;6164938;23;20209;-90
2022/09/30 02:26:04;;;;;;;5.17;4.67;;;;;;;11.37;100.00;98335.84;6205477;22;20340;-90
2022/09/30 02:28:32;;;;;;;4.83;4.40;;;;;;;11.35;100.00;98330.72;6247867;22;20200;-89
2022/09/30 02:31:01;;;;;;;5.17;4.43;;;;;;;11.37;100.00;98335.84;6248575;22;20656;-91
2022/09/30 02:33:33;;;;;;;5.17;4.67;;;;;;;11.34;100.00;98336.31;6223296;22;20711;-90
2022/09/30 02:36:31;;;;;;;5.70;5.20;;;;;;;11.34;100.00;98331.78;6223553;22;20185;-90
2022/09/30 02:39:10;;;;;;;5.60;5.00;;;;;;;11.36;100.00;98334.22;6211598;22;20209;-90
2022/09/30 02:41:45;;;;;;;5.83;5.33;;;;;;;11.33;100.00;98326.69;6222953;22;20211;-90
2022/09/30 02:44:12;;;;;;;6.33;5.60;;;;;;;11.32;100.00;98343.84;6247803;22;20203;-92
2022/09/30 02:46:43;;;;;;;5.33;4.83;;;;;;;11.35;100.00;98333.41;6248538;22;20447;-90
2022/09/30 02:49:30;;;;;;;5.57;5.07;;;;;;;11.31;100.00;98334.97;6223348;22;20208;-90
2022/09/30 02:52:07;;;;;;;4.97;4.57;;;;;;;11.34;100.00;98325.59;6248104;22;20203;-91
2022/09/30 02:54:40;;;;;;;4.60;4.20;;;;;;;11.33;100.00;98329.38;6222947;22;20283;-91
2022/09/30 02:57:18;;;;;;;4.43;4.07;;;;;;;11.32;100.00;98327.75;6194752;22;20224;-92
2022/09/30 02:59:46;;;;;;;4.60;4.20;;;;;;;11.39;100.00;98342.53;6237232;22;20257;-90
2022/09/30 03:02:13;;;;;;;4.93;4.43;;;;;;;11.41;100.00;98342.28;6272850;22;20207;-91
2022/09/30 03:04:40;;;;;;;5.83;4.57;;;;;;;11.42;100.00;98341.25;6248542;22;20267;-91
2022/09/30 03:07:08;;;;;;;5.40;5.00;;;;;;;11.41;100.00;98337.75;6198007;22;20227;-92
2022/09/30 03:09:35;;;;;;;5.00;4.60;;;;;;;11.40;100.00;98335.31;6223325;22;20219;-92
2022/09/30 03:12:38;;;;;;;5.20;4.70;;;;;;;11.41;100.00;98339.63;6221305;22;20725;-90
2022/09/30 03:15:24;;;;;;;5.57;5.07;;;;;;;11.24;100.00;98338.94;6208209;22;20305;-91
2022/09/30 03:18:35;;;;;;;6.20;5.47;;;;;;;11.13;100.00;98330.00;6248213;22;20283;-92
2022/09/30 03:21:21;;;;;;;6.13;5.53;;;;;;;11.22;100.00;98331.16;6142477;22;20211;-91
2022/09/30 03:24:09;;;;;;;6.10;5.60;;;;;;;11.32;100.00;98333.09;6248366;22;20287;-91
2022/09/30 03:26:51;;;;;;;7.27;6.57;;;;;;;11.31;100.00;98328.81;6182290;22;20196;-91
2022/09/30 03:29:50;;;;;;;7.30;6.60;;;;;;;11.29;100.00;98342.44;6249260;22;20238;-91
2022/09/30 03:32:38;;;;;;;8.63;7.20;;;;;;;11.23;100.00;98342.69;6224244;22;20212;-90
2022/09/30 03:35:23;;;;;;;6.70;6.10;;;;;;;11.19;100.00;98357.66;6249505;22;20219;-91
2022/09/30 03:38:15;;;;;;;7.00;6.40;;;;;;;11.16;100.00;98353.59;6224327;22;20208;-91
2022/09/30 03:41:01;;;;;;;7.23;6.63;;;;;;;11.16;100.00;98358.16;6224724;22;20660;-91
2022/09/30 03:43:31;;;;;;;7.73;7.10;;;;;;;11.26;100.00;98368.97;6224333;22;20208;-91
2022/09/30 03:46:23;;;;;;;7.70;6.97;;;;;;;11.32;100.00;98367.97;6223900;22;20218;-91
2022/09/30 03:48:52;;;;;;;7.60;6.90;;;;;;;11.27;100.00;98365.22;6203064;22;20231;-91
2022/09/30 03:51:20;;;;;;;7.60;6.83;;;;;;;11.29;100.00;98371.16;6196080;22;20203;-91
2022/09/30 03:53:46;;;;;;;7.60;7.00;;;;;;;11.19;100.00;98374.56;6220774;22;20203;-92
2022/09/30 03:56:13;;;;;;;8.13;7.30;;;;;;;11.15;100.00;98373.41;6196889;22;20299;-92
2022/09/30 03:58:43;;;;;;;8.40;7.60;;;;;;;11.22;100.00;98373.22;6198478;22;20251;-92
2022/09/30 04:01:18;;;;;;;7.83;7.17;;;;;;;11.21;100.00;98387.69;6222798;22;20203;-93
2022/09/30 04:03:45;;;;;;;8.77;7.97;;;;;;;11.23;100.00;98386.38;6198750;22;20237;-92
2022/09/30 04:06:13;;;;;;;8.17;7.47;;;;;;;11.23;100.00;98389.06;6222398;22;20207;-92
2022/09/30 04:08:39;;;;;;;7.93;7.13;;;;;;;11.29;100.00;98390.72;6222393;22;20294;-92
2022/09/30 04:11:06;;;;;;;7.90;7.30;;;;;;;11.26;100.00;98391.22;6223021;22;20212;-93
2022/09/30 04:13:33;;;;;;;8.50;7.73;;;;;;;11.27;100.00;98395.53;6198666;22;20191;-92
2022/09/30 04:16:00;;;;;;;8.57;7.90;;;;;;;11.30;100.00;98399.56;6225016;22;20200;-92
2022/09/30 04:18:27;;;;;;;8.77;7.97;;;;;;;11.24;100.00;98396.06;6224143;22;20199;-91
2022/09/30 04:20:53;;;;;;;9.07;8.37;;;;;;;11.23;100.00;98402.47;6200227;22;20211;-92
2022/09/30 04:23:20;;;;;;;8.83;8.03;;;;;;;11.27;100.00;98400.09;6224717;22;20211;-90
2022/09/30 04:25:53;;;;;;;8.97;8.17;;;;;;;11.20;100.00;98400.28;6199496;22;20208;-89
2022/09/30 04:28:22;;;;;;;9.73;8.83;;;;;;;11.21;100.00;98403.78;6184781;22;20228;-90
2022/09/30 04:30:48;;;;;;;9.97;8.97;;;;;;;11.18;100.00;98410.47;6200211;22;20212;-89
2022/09/30 04:33:15;;;;;;;10.50;9.37;;;;;;;11.10;100.00;98404.75;6199911;22;20278;-89
2022/09/30 04:35:42;;;;;;;9.93;9.07;;;;;;;11.14;100.00;98408.53;6224640;22;20207;-90
2022/09/30 04:38:08;;;;;;;10.03;9.07;;;;;;;11.13;100.00;98415.78;6199782;22;20278;-89
2022/09/30 04:40:37;;;;;;;10.83;9.73;;;;;;;11.09;100.00;98409.31;6226718;22;20208;-89
2022/09/30 06:00:31;;;;;;;10.60;9.47;;;;;;;11.13;100.00;98546.31;6284587;22;20218;-89
2022/09/30 06:02:58;;;;;;;11.03;9.87;;;;;;;11.27;100.00;98544.88;6200194;22;20208;-89
2022/09/30 06:05:24;;;;;;;11.17;10.07;;;;;;;11.31;100.00;98546.81;6199413;22;20204;-89
2022/09/30 06:07:52;;;;;;;11.00;9.90;;;;;;;11.37;100.00;98555.72;6224586;22;20906;-90
2022/09/30 06:10:18;;;;;;;10.87;9.77;;;;;;;11.40;100.00;98564.06;6224227;22;20204;-90
2022/09/30 06:12:45;;;;;;;11.13;10.13;;;;;;;11.38;100.00;98560.03;6251178;22;20207;-91
2022/09/30 06:15:12;;;;;;;10.23;9.20;;;;;;;11.53;100.00;98570.09;6201013;22;20218;-90
2022/09/30 06:17:41;;;;;;;10.17;9.23;;;;;;;11.66;100.00;98575.09;6225490;22;20204;-90
2022/09/30 06:20:09;;;;;;;10.77;9.67;;;;;;;11.64;100.00;98582.59;6250546;22;20235;-90
2022/09/30 06:22:35;;;;;;;9.90;9.00;;;;;;;11.63;100.00;98575.59;6250639;22;20208;-90
2022/09/30 06:25:07;;;;;;;10.07;8.93;;;;;;;11.69;100.00;98579.97;6250673;22;20208;-90
2022/09/30 06:27:33;;;;;;;9.47;8.57;;;;;;;11.63;100.00;98584.44;6225478;22;20204;-90
2022/09/30 06:30:00;;;;;;;9.80;8.90;;;;;;;11.68;100.00;98591.75;6224868;22;20216;-90
2022/09/30 06:32:27;;;;;;;8.33;7.63;;;;;;;11.77;100.00;98598.31;6225513;22;20226;-87
2022/09/30 06:34:54;;;;;;;8.67;7.40;;;;;;;11.64;100.00;98596.00;6225552;22;20212;-89
2022/09/30 06:37:21;;;;;;;9.13;7.97;;;;;;;11.67;100.00;98600.84;6201202;22;20295;-90
2022/09/30 06:39:49;;;;;;;8.60;7.83;;;;;;;11.78;100.00;98599.94;6225335;22;20226;-91
2022/09/30 06:42:17;;;;;;;7.60;6.90;;;;;;;11.80;100.00;98612.03;6200642;22;20235;-89
2022/09/30 06:44:44;;;;;;;7.03;6.43;;;;;;;11.72;100.00;98606.28;6225972;22;20204;-89
2022/09/30 06:47:18;;;;;;;6.23;5.63;;;;;;;11.77;100.00;98604.50;6203810;22;20683;-87
2022/09/30 06:49:52;;;;;;;6.17;5.57;;;;;;;11.83;100.00;98622.28;6228132;22;20231;-89
2022/09/30 06:52:19;;;;;;;5.90;5.40;;;;;;;11.84;100.00;98607.00;6225570;22;20544;-89
2022/09/30 06:54:45;;;;;;;5.20;4.70;;;;;;;11.93;100.00;98618.91;6201136;22;20287;-88
2022/09/30 06:57:12;;;;;;;4.70;4.07;;;;;;;11.93;100.00;98626.13;6227155;22;20208;-88
2022/09/30 06:59:39;;;;;;;4.50;4.10;;;;;;;11.91;100.00;98619.13;6226466;22;20203;-87
2022/09/30 07:02:08;;;;;;;4.30;3.90;;;;;;;12.05;100.00;98622.22;6226310;22;20204;-89
2022/09/30 07:04:35;;;;;;;3.90;3.60;;;;;;;12.18;100.00;98616.44;6201307;22;20211;-88
2022/09/30 07:07:02;;;;;;;4.33;4.03;;;;;;;12.21;100.00;98625.88;6226432;22;20208;-87
2022/09/30 07:44:50;;;;;;;4.43;4.03;;;;;;;12.82;100.00;98675.59;6263994;22;20234;-90
2022/09/30 07:47:19;;;;;;;3.97;3.67;;;;;;;12.95;100.00;98679.72;6200060;22;20200;-90
2022/09/30 07:49:46;;;;;;;3.83;3.53;;;;;;;12.96;100.00;98679.47;6200591;22;20204;-90
2022/09/30 07:52:13;;;;;;;4.43;4.13;;;;;;;13.03;100.00;98688.09;6224338;22;20210;-91
2022/09/30 07:54:41;;;;;;;4.10;3.80;;;;;;;13.18;100.00;98690.94;6200121;22;20199;-89
2022/09/30 07:57:13;;;;;;;4.20;3.90;;;;;;;13.27;100.00;98685.88;6225941;22;20219;-91
2022/09/30 07:59:41;;;;;;;4.70;4.30;;;;;;;13.47;100.00;98701.34;6199808;22;20654;-92
2022/09/30 08:02:13;;;;;;;4.80;4.40;;;;;;;13.39;100.00;98694.56;6224086;22;20204;-89
2022/09/30 08:04:40;;;;;;;4.83;4.53;;;;;;;13.58;100.00;98700.31;6199750;22;20204;-91
2022/09/30 08:07:12;;;;;;;4.60;4.23;;;;;;;13.48;100.00;98709.16;6225314;22;20583;-91
2022/09/30 08:09:38;;;;;;;4.60;4.20;;;;;;;13.59;100.00;98697.38;6224688;22;20211;-92
2022/09/30 08:12:05;;;;;;;4.50;4.10;;;;;;;13.45;100.00;98704.28;6249863;22;20189;-91
2022/09/30 08:14:32;;;;;;;4.53;4.20;;;;;;;13.68;100.00;98711.94;6275618;22;20203;-91
2022/09/30 08:16:59;;;;;;;4.90;4.40;;;;;;;13.54;100.00;98712.66;6224962;22;20208;-91
2022/09/30 08:19:28;;;;;;;4.53;4.20;;;;;;;13.55;100.00;98725.06;6274907;22;20238;-90
2022/09/30 08:21:55;;;;;;;5.20;4.80;;;;;;;13.77;100.00;98727.59;6199472;22;20212;-92
2022/09/30 08:24:23;;;;;;;4.67;4.27;;;;;;;13.88;100.00;98730.09;6198670;22;20201;-91
2022/09/30 08:26:51;;;;;;;4.80;4.40;;;;;;;14.06;100.00;98737.69;6199396;22;20207;-91
2022/09/30 08:29:18;;;;;;;4.77;4.40;;;;;;;14.15;100.00;98738.00;6199298;22;20216;-92
2022/09/30 08:32:04;;;;;;;4.77;4.40;;;;;;;14.32;100.00;98740.50;6248475;22;20228;-91
2022/09/30 08:34:34;;;;;;;4.90;4.53;;;;;;;14.54;100.00;98751.88;6248838;22;20207;-92
2022/09/30 08:37:01;;;;;;;4.93;4.53;;;;;;;14.51;100.00;98750.53;6274240;22;20200;-91
2022/09/30 08:39:34;;;;;;;4.70;4.30;;;;;;;14.61;100.00;98754.31;6202057;22;20212;-90
2022/09/30 08:42:17;;;;;;;4.67;4.37;;;;;;;14.76;100.00;98765.94;6224402;22;20210;-92
2022/09/30 08:45:14;;;;;;;4.43;4.13;;;;;;;14.81;100.00;98765.13;6215122;22;20207;-90
2022/09/30 08:48:21;;;;;;;4.57;4.17;;;;;;;14.95;100.00;98761.66;6249328;22;20209;-92
2022/09/30 08:51:01;;;;;;;4.63;4.30;;;;;;;15.05;100.00;98757.34;6249130;22;20255;-92
2022/09/30 08:53:30;;;;;;;4.67;4.30;;;;;;;15.47;100.00;98757.88;6224380;22;20207;-91
2022/09/30 08:56:01;;;;;;;4.00;3.70;;;;;;;15.61;100.00;98756.25;6199170;22;20204;-92
2022/09/30 08:58:47;;;;;;;4.33;4.00;;;;;;;15.67;100.00;98748.94;6199555;22;20281;-92
2022/09/30 09:01:26;;;;;;;4.03;3.73;;;;;;;15.65;100.00;98751.91;6199460;22;20288;-92
2022/09/30 09:03:53;;;;;;;3.80;3.50;;;;;;;15.36;100.00;98746.25;6224189;22;20296;-91
2022/09/30 09:06:27;;;;;;;3.87;3.57;;;;;;;15.39;100.00;98740.34;6248808;22;20228;-91
2022/09/30 09:08:56;;;;;;;3.90;3.60;;;;;;;15.53;100.00;98731.72;6222889;22;20215;-91
2022/09/30 09:11:50;;;;;;;4.00;3.70;;;;;;;15.70;100.00;98743.00;6274756;22;20210;-91
2022/09/30 09:14:29;;;;;;;3.73;3.43;;;;;;;16.00;98.58;98737.50;6248950;22;20288;-91
2022/09/30 09:17:27;;;;;;;4.27;3.97;;;;;;;16.15;100.00;98733.91;6249116;22;20209;-91
2022/09/30 09:20:15;;;;;;;4.63;4.23;;;;;;;15.98;100.00;98753.19;6248888;22;20636;-91
2022/09/30 09:22:43;;;;;;;4.20;3.90;;;;;;;15.99;100.00;98764.78;6248780;22;20280;-91
2022/09/30 09:25:14;;;;;;;4.43;4.10;;;;;;;15.90;100.00;98764.56;6198330;22;20213;-90
2022/09/30 09:27:48;;;;;;;4.40;4.00;;;;;;;16.06;100.00;98776.91;6224229;22;20216;-91
2022/09/30 09:30:18;;;;;;;4.13;3.83;;;;;;;15.93;98.13;98776.69;6275421;22;20688;-92
2022/09/30 09:32:50;;;;;;;4.33;3.93;;;;;;;16.02;96.40;98770.44;6224157;22;20646;-92
2022/09/30 09:35:26;;;;;;;3.93;3.63;;;;;;;16.11;97.74;98787.72;6224150;22;20289;-91
2022/09/30 09:38:24;;;;;;;4.53;3.90;;;;;;;15.83;100.00;98785.63;6223924;22;20204;-92
2022/09/30 09:41:12;;;;;;;3.83;3.53;;;;;;;15.70;100.00;98784.31;6223297;22;20206;-94
2022/09/30 09:43:57;;;;;;;3.83;3.53;;;;;;;15.63;100.00;98780.28;6224183;22;20225;-90
2022/09/30 09:46:32;;;;;;;3.80;3.50;;;;;;;15.54;99.69;98769.22;6250588;22;20203;-91
2022/09/30 09:49:19;;;;;;;4.07;3.67;;;;;;;15.61;99.92;98782.44;6225984;22;20212;-89
2022/09/30 09:52:23;;;;;;;3.87;3.57;;;;;;;15.40;100.00;98773.50;6238141;22;20224;-91
2022/09/30 09:54:55;;;;;;;3.63;3.33;;;;;;;15.65;100.00;98778.09;6276906;22;20196;-91
2022/09/30 09:57:26;;;;;;;4.00;3.70;;;;;;;15.85;100.00;98780.78;6201187;22;20293;-90
2022/09/30 10:02:59;;;;;;;3.73;3.43;;;;;;;16.34;92.78;98801.66;6276173;22;20218;-92
2022/09/30 10:05:28;;;;;;;3.77;3.47;;;;;;;16.84;88.93;98812.28;6278004;22;20222;-91
2022/09/30 10:08:10;;;;;;;3.77;3.47;;;;;;;17.15;85.25;98813.69;6226256;22;20208;-92
2022/09/30 10:10:46;;;;;;;3.30;3.07;;;;;;;17.51;82.05;98819.63;6212622;22;20210;-91
2022/09/30 10:13:16;;;;;;;3.50;3.30;;;;;;;17.34;83.04;98818.41;6201228;22;20218;-92
2022/09/30 10:15:42;;;;;;;3.63;3.20;;;;;;;17.48;81.20;98820.19;6250827;22;20208;-93
2022/09/30 10:18:26;;;;;;;3.03;2.83;;;;;;;17.91;76.70;98825.78;6250122;22;20215;-91
2022/09/30 10:20:55;;;;;;;3.33;2.90;;;;;;;17.41;79.48;98827.81;6251191;22;20228;-91
2022/09/30 10:23:28;;;;;;;2.87;2.67;;;;;;;17.59;76.13;98832.56;6225599;22;20254;-93
2022/09/30 10:25:56;;;;;;;2.63;2.43;;;;;;;17.73;75.04;98848.97;6225585;22;20269;-91
2022/09/30 10:28:25;;;;;;;3.03;2.70;;;;;;;17.88;74.30;98845.31;6200039;22;20203;-91
2022/09/30 10:31:06;;;;;;;2.97;2.77;;;;;;;17.76;75.23;98848.41;6225715;22;20215;-92
2022/09/30 10:33:43;;;;;;;3.63;2.97;;;;;;;17.95;73.34;98853.94;6200987;22;20208;-89
2022/09/30 10:36:14;;;;;;;3.20;3.00;;;;;;;17.88;72.98;98848.03;6227274;22;20218;-91
2022/09/30 10:38:59;;;;;;;3.27;3.07;;;;;;;17.89;71.68;98841.53;6252538;22;20200;-91
2022/09/30 10:41:34;;;;;;;3.07;2.87;;;;;;;18.24;68.25;98841.16;6203538;22;20655;-90
2022/09/30 10:44:03;;;;;;;2.77;2.57;;;;;;;18.25;69.18;98848.19;6201133;22;20211;-91
2022/09/30 10:46:34;;;;;;;3.13;2.93;;;;;;;17.85;70.80;98843.19;6255749;22;20279;-91
2022/09/30 10:49:08;;;;;;;3.40;3.10;;;;;;;17.89;73.52;98855.06;6256344;22;20207;-90
2022/09/30 10:51:35;;;;;;;3.03;2.57;;;;;;;18.02;71.40;98851.69;6256001;22;20227;-90
2022/09/30 10:54:04;;;;;;;3.10;2.90;;;;;;;17.79;72.69;98850.56;6255434;22;20207;-90
2022/09/30 10:56:39;;;;;;;3.00;2.70;;;;;;;17.58;71.29;98852.66;6255413;22;20203;-90
2022/09/30 10:59:15;;;;;;;3.20;2.90;;;;;;;17.07;77.42;98848.66;6231080;22;20211;-92
2022/09/30 11:01:51;;;;;;;3.20;2.73;;;;;;;17.06;79.64;98850.56;6282533;22;20226;-90
2022/09/30 11:04:39;;;;;;;3.00;2.70;;;;;;;16.75;79.59;98848.31;6256489;22;20196;-91
2022/09/30 11:07:28;;;;;;;2.80;2.60;;;;;;;16.72;80.00;98855.88;6255775;22;20265;-91
2022/09/30 11:10:22;;;;;;;3.10;2.90;;;;;;;16.67;80.20;98863.22;6255599;22;20206;-92
2022/09/30 11:13:18;;;;;;;3.90;3.00;;;;;;;16.80;80.52;98859.88;6280371;22;20214;-90
2022/09/30 11:15:48;;;;;;;3.10;2.90;;;;;;;16.70;78.12;98871.56;6308662;22;20227;-91
2022/09/30 11:18:20;;;;;;;3.10;2.70;;;;;;;16.53;83.16;98884.59;6307792;22;20207;-92
2022/09/30 11:21:00;;;;;;;3.10;2.90;;;;;;;16.67;80.93;98877.53;6230947;22;20207;-92
2022/09/30 11:23:31;;;;;;;3.27;2.97;;;;;;;16.75;80.24;98888.88;6256038;22;20207;-91
2022/09/30 11:26:13;;;;;;;3.10;2.90;;;;;;;16.78;79.15;98905.38;6281406;22;20265;-89
2022/09/30 11:29:01;;;;;;;3.50;3.20;;;;;;;17.03;80.01;98907.16;6281179;22;20279;-91
2022/09/30 11:31:28;;;;;;;3.10;2.50;;;;;;;16.95;77.36;98895.00;6308480;22;20265;-91
2022/09/30 11:34:13;;;;;;;3.30;3.00;;;;;;;17.01;77.75;98893.88;6281210;22;20207;-90
2022/09/30 11:36:40;;;;;;;3.13;2.93;;;;;;;16.94;79.44;98900.66;6280883;22;20223;-91
2022/09/30 11:39:23;;;;;;;2.60;2.40;;;;;;;16.94;79.81;98904.19;6281029;22;20211;-92
2022/09/30 11:42:04;;;;;;;3.23;2.93;;;;;;;16.59;86.15;98912.47;6307846;22;20207;-91
2022/09/30 11:44:33;;;;;;;2.53;2.33;;;;;;;16.85;79.81;98908.56;6265743;22;20199;-91
2022/09/30 11:47:15;;;;;;;2.60;2.40;;;;;;;16.94;79.80;98914.19;6255690;22;20218;-91
2022/09/30 11:49:45;;;;;;;2.40;2.20;;;;;;;16.91;80.54;98907.47;6281112;22;20208;-90
2022/09/30 11:52:41;;;;;;;2.53;2.33;;;;;;;16.51;80.60;98899.50;6280545;22;20204;-91
2022/09/30 11:55:21;;;;;;;2.17;2.07;;;;;;;16.77;79.53;98908.34;6306834;22;20273;-91
2022/09/30 11:57:59;;;;;;;2.53;2.30;;;;;;;16.84;79.46;98901.56;6255533;22;20236;-92
2022/09/30 12:00:48;;;;;;;2.60;2.37;;;;;;;16.69;80.02;98893.50;6258456;22;20204;-90
2022/09/30 12:03:21;;;;;;;2.20;2.10;;;;;;;16.78;81.94;98894.53;6253956;22;20234;-91
2022/09/30 12:05:54;;;;;;;2.10;2.00;;;;;;;17.28;75.65;98900.75;6255714;22;20207;-92
2022/09/30 12:08:34;;;;;;;2.00;1.90;;;;;;;17.60;72.41;98909.22;6254519;22;20207;-91
2022/09/30 12:11:13;;;;;;;2.10;2.00;;;;;;;17.85;69.74;98916.34;6280841;22;20675;-92
2022/09/30 12:13:44;;;;;;;1.60;1.50;;;;;;;18.02;69.37;98912.13;6255232;22;20256;-91
2022/09/30 12:16:15;;;;;;;1.90;1.80;;;;;;;18.40;66.25;98915.81;6280096;22;20204;-89
2022/09/30 12:18:48;;;;;;;1.90;1.80;;;;;;;18.45;66.56;98913.03;6254687;22;20609;-89
2022/09/30 12:21:38;;;;;;;1.90;1.80;;;;;;;18.27;66.15;98916.50;6255624;22;20689;-91
2022/09/30 12:24:30;;;;;;;2.37;2.17;;;;;;;17.80;70.92;98913.69;6280176;22;20203;-91
2022/09/30 12:26:58;;;;;;;1.83;1.73;;;;;;;17.75;71.46;98908.28;6280407;22;20226;-91
2022/09/30 12:32:18;;;;;;;1.77;1.50;;;;;;;17.38;73.72;98915.03;6258529;22;20268;-91
2022/09/30 12:35:21;;;;;;;1.60;1.50;;;;;;;17.35;72.64;98907.50;6229806;22;20203;-91
2022/09/30 12:38:03;;;;;;;1.97;1.50;;;;;;;17.28;72.12;98922.41;6223351;22;20207;-92
2022/09/30 12:40:48;;;;;;;1.63;1.53;;;;;;;17.70;69.68;98917.28;6280135;22;20224;-91
2022/09/30 12:43:37;;;;;;;1.77;1.67;;;;;;;17.62;68.99;98922.50;6255861;22;20214;-92
2022/09/30 12:46:25;;;;;;;1.80;1.70;;;;;;;17.82;66.38;98925.06;6253233;22;20223;-90
2022/09/30 12:48:56;;;;;;;1.37;1.27;;;;;;;17.84;65.51;98918.25;6276348;22;20678;-92
2022/09/30 12:51:30;;;;;;;2.57;1.80;;;;;;;17.67;66.41;98923.28;6250344;22;20284;-91
2022/09/30 12:54:17;;;;;;;1.60;1.50;;;;;;;17.72;66.00;98923.22;6249614;22;20220;-91
2022/09/30 12:56:48;;;;;;;1.50;1.40;;;;;;;18.06;65.77;98920.47;6228423;22;20202;-90
2022/09/30 12:59:19;;;;;;;1.40;1.30;;;;;;;18.20;64.72;98920.63;6225047;22;20610;-89
2022/09/30 13:01:45;;;;;;;1.60;1.50;;;;;;;18.27;65.33;98918.41;6225090;22;20648;-89
2022/09/30 13:04:17;;;;;;;1.50;1.40;;;;;;;18.47;64.78;98929.03;6248419;22;20315;-90
2022/09/30 13:06:44;;;;;;;3.83;1.57;;;;;;;18.30;63.34;98943.03;6198982;22;20714;-91
2022/09/30 13:09:10;;;;;;;1.87;1.60;;;;;;;18.06;63.67;98939.44;6249049;22;20242;-90
2022/09/30 13:11:39;;;;;;;1.47;1.37;;;;;;;17.82;63.89;98941.31;6249317;22;20231;-91
2022/09/30 13:14:15;;;;;;;1.70;1.60;;;;;;;17.94;64.59;98942.56;6248744;22;20231;-90
2022/09/30 13:17:02;;;;;;;1.47;1.37;;;;;;;17.95;66.37;98948.78;6276583;22;20273;-89
2022/09/30 13:19:43;;;;;;;1.60;1.50;;;;;;;18.25;65.23;98942.25;6226473;22;20227;-90
2022/09/30 13:22:18;;;;;;;1.80;1.30;;;;;;;18.20;64.65;98950.44;6252096;22;20208;-90
2022/09/30 13:25:03;;;;;;;1.37;1.27;;;;;;;18.35;64.50;98959.25;6252676;22;20203;-90
2022/09/30 13:27:41;;;;;;;1.70;1.60;;;;;;;18.36;64.82;98952.75;6253019;22;20278;-90
2022/09/30 13:30:17;;;;;;;1.80;1.70;;;;;;;18.16;64.35;98939.38;6277634;22;20208;-90
2022/09/30 13:32:49;;;;;;;1.57;1.47;;;;;;;18.42;62.33;98942.66;6227402;22;20639;-90
2022/09/30 13:35:32;;;;;;;1.60;1.40;;;;;;;18.18;61.97;98947.22;6227173;22;20663;-91
2022/09/30 13:38:14;;;;;;;1.70;1.60;;;;;;;18.15;63.86;98955.94;6253057;22;20261;-90
2022/09/30 13:40:53;;;;;;;1.30;1.20;;;;;;;18.03;65.26;98951.69;6277886;22;20192;-90
2022/09/30 13:43:39;;;;;;;1.80;1.20;;;;;;;17.93;64.15;98948.25;6254484;22;20266;-90
2022/09/30 13:46:35;;;;;;;1.50;1.40;;;;;;;18.03;64.64;98948.97;6226555;22;20208;-90
2022/09/30 13:49:11;;;;;;;2.20;1.50;;;;;;;18.12;66.67;98932.09;6202567;22;20715;-89
2022/09/30 13:51:39;;;;;;;1.60;1.50;;;;;;;18.18;66.39;98939.91;6227271;22;20234;-90
2022/09/30 13:54:11;;;;;;;1.40;1.30;;;;;;;18.18;64.23;98941.81;6226693;22;20591;-89
2022/09/30 13:56:39;;;;;;;1.40;1.30;;;;;;;18.10;64.03;98947.84;6227185;22;20527;-90
2022/09/30 13:59:06;;;;;;;1.73;1.37;;;;;;;17.96;64.86;98945.00;6252648;22;20215;-90
2022/09/30 14:01:42;;;;;;;1.80;1.47;;;;;;;17.99;66.23;98949.84;6237191;22;20275;-89